N9GF Weather Reports


Display with metric or nautical units.
time (UTC)temp
F
wind
direction
speed
MPH
gust
MPH
rain 1hr
in
rain 24hr
in
rain mn
in
humidity
%
barometer
mb
20210925054608 56 315 0.0 0.0 0.00 0.00 0.02 88 1010.3
20210925053111 56 346 0.0 0.0 0.00 0.00 0.02 88 1010.2
20210925051613 56 44 0.0 0.0 0.00 0.00 0.01 87 1010.2
20210925050134 57 30 0.0 0.0 0.00 0.00 0.06 87 1009.9
20210925044629 57 24 0.0 0.0 0.00 0.00 0.06 86 1009.9
20210925043046 58 46 0.0 0.0 0.00 0.00 0.06 85 1009.4
20210925041615 60 339 0.0 0.0 0.00 0.00 0.05 84 1009.3
20210925040139 62 355 0.0 0.0 0.00 0.00 0.03 83 1008.9
20210925034635 63 341 0.0 0.0 0.00 0.00 0.02 80 1008.4
20210925033052 65 326 0.0 0.0 0.00 0.00 0.00 75 1008.5
20210925031702 67 313 0.0 0.0 0.00 0.00 0.00 69 1008.3
20210925030119 68 296 0.0 0.0 0.00 0.00 0.00 64 1007.8
20210925024616 70 355 0.0 0.0 0.00 0.00 0.00 57 1007.3
20210925023105 71 252 0.0 0.0 0.00 0.00 0.00 52 1006.6
20210925021611 71 207 0.0 0.0 0.00 0.00 0.00 52 1006.5
20210925021510 71 261 0.0 0.0 0.00 0.00 0.00 52 1006.5
20210925020041 72 271 0.0 0.0 0.00 0.00 0.00 53 1006.5
20210925014655 72 175 0.0 0.0 0.00 0.00 0.00 50 1006.4
20210925013041 73 203 0.0 0.0 0.00 0.00 0.00 47 1006.5
20210925011537 73 209 0.0 0.0 0.00 0.00 0.00 46 1006.3
20210925010045 73 268 0.0 0.0 0.00 0.00 0.00 46 1006.4
20210925004558 73 192 0.0 0.0 0.00 0.00 0.00 45 1006.6
20210925003053 73 228 0.0 0.0 0.00 0.00 0.00 45 1006.5
20210925001545 73 216 0.0 0.0 0.00 0.00 0.00 45 1006.6
20210925000112 73 215 0.0 0.0 0.00 0.00 0.00 45 1006.8
20210924234617 73 221 0.0 0.0 0.00 0.00 0.00 46 1006.9
20210924233056 74 205 0.0 0.0 0.00 0.00 0.00 46 1007.3
20210924231549 75 189 1.0 0.0 0.00 0.00 0.00 45 1007.6
20210924230054 76 292 1.0 0.0 0.00 0.00 0.00 43 1007.5
20210924224530 77 281 0.0 0.0 0.00 0.00 0.00 38 1007.4
20210924223051 77 315 1.0 0.0 0.00 0.00 0.00 37 1007.2
20210924221644 78 203 0.0 0.0 0.00 0.00 0.00 36 1007.3
20210924220042 78 217 0.0 0.0 0.00 0.00 0.00 36 1007.2
20210924214605 79 210 0.0 0.0 0.00 0.00 0.00 37 1007.3
20210924213037 79 213 0.0 0.0 0.00 0.00 0.00 36 1007.4
20210924211529 79 300 1.0 0.0 0.00 0.00 0.00 36 1007.6
20210924210023 78 213 1.0 0.0 0.00 0.00 0.00 37 1007.6
20210924204603 78 291 1.0 0.0 0.00 0.00 0.00 37 1007.7
20210924203058 79 211 1.0 0.0 0.00 0.00 0.00 36 1007.8
20210924201529 80 212 0.0 0.0 0.00 0.00 0.00 36 1007.9
20210924200025 80 315 0.0 0.0 0.00 0.00 0.00 37 1008.0
20210924194517 80 175 0.0 0.0 0.00 0.00 0.00 36 1008.3
20210924193032 78 202 0.0 0.0 0.00 0.00 0.00 38 1008.5
20210924191524 77 297 0.0 0.0 0.00 0.00 0.00 39 1008.9
20210924190005 77 219 1.0 0.0 0.00 0.00 0.00 39 1009.1
20210924184503 76 202 0.0 0.0 0.00 0.00 0.00 41 1009.3
20210924183116 76 200 0.0 0.0 0.00 0.00 0.00 41 1009.6
20210924181702 75 267 0.0 0.0 0.00 0.00 0.00 41 1010.0
20210924180138 75 199 0.0 0.0 0.00 0.00 0.00 43 1010.4
20210924174610 74 225 0.0 0.0 0.00 0.00 0.00 43 1010.7
20210924173118 73 243 0.0 0.0 0.00 0.00 0.00 44 1010.9
20210924171548 72 204 0.0 0.0 0.00 0.00 0.00 47 1011.2
20210924170042 71 219 0.0 0.0 0.00 0.00 0.00 47 1011.5
20210924164558 70 219 0.0 0.0 0.00 0.00 0.00 48 1011.7
20210924163054 69 223 0.0 0.0 0.00 0.00 0.00 50 1012.0
20210924161643 68 219 0.0 0.0 0.00 0.00 0.00 52 1012.2
20210924160105 67 214 0.0 0.0 0.00 0.00 0.00 53 1012.4
20210924154534 66 292 0.0 0.0 0.00 0.00 0.00 55 1012.5
20210924153034 65 239 0.0 0.0 0.00 0.00 0.00 55 1012.6
20210924151608 65 217 1.0 0.0 0.00 0.00 0.00 55 1012.8
20210924150016 63 321 0.0 0.0 0.00 0.00 0.00 59 1012.9
20210924144523 61 262 0.0 0.0 0.00 0.00 0.00 63 1013.1
20210924143030 59 313 0.0 0.0 0.00 0.00 0.00 66 1013.1
20210924141510 58 297 0.0 0.0 0.00 0.00 0.00 70 1013.2
20210924140147 56 318 0.0 0.0 0.00 0.00 0.00 73 1013.0
20210924134705 55 310 0.0 0.0 0.00 0.00 0.00 76 1013.0
20210924133129 53 256 0.0 0.0 0.00 0.00 0.00 80 1013.1
20210924131709 52 309 0.0 0.0 0.00 0.00 0.00 83 1013.2
20210924130124 50 40 0.0 0.0 0.00 0.00 0.00 84 1013.1
20210924124710 49 41 0.0 0.0 0.00 0.00 0.00 84 1012.9
20210924123053 49 42 0.0 0.0 0.00 0.00 0.00 84 1012.9
20210924121543 49 42 0.0 0.0 0.00 0.00 0.00 83 1012.8
20210924120059 49 42 0.0 0.0 0.00 0.00 0.00 83 1012.7
20210924114624 49 42 0.0 0.0 0.00 0.00 0.00 82 1012.8
20210924113113 50 42 0.0 0.0 0.00 0.00 0.00 81 1012.8
20210924111536 50 42 0.0 0.0 0.00 0.00 0.00 81 1012.7
20210924110126 50 42 0.0 0.0 0.00 0.00 0.00 81 1012.7
20210924104604 50 42 0.0 0.0 0.00 0.00 0.00 81 1012.6
20210924103101 51 42 0.0 0.0 0.00 0.00 0.00 80 1012.6
20210924101745 51 42 0.0 0.0 0.00 0.00 0.00 81 1012.5
20210924100039 51 42 0.0 0.0 0.00 0.00 0.00 81 1012.4
20210924094549 51 42 0.0 0.0 0.00 0.00 0.00 80 1012.3
20210924093043 51 42 0.0 0.0 0.00 0.00 0.00 80 1012.1
20210924083025 52 44 0.0 0.0 0.00 0.00 0.00 79 1011.9
20210924081523 52 44 0.0 0.0 0.00 0.00 0.00 78 1011.8
20210924080021 52 44 0.0 0.0 0.00 0.00 0.00 78 1011.7
20210924074537 52 45 0.0 0.0 0.00 0.00 0.00 78 1011.8
20210924073026 52 45 0.0 0.0 0.00 0.00 0.00 78 1011.8
20210924071528 52 45 0.0 0.0 0.00 0.00 0.00 78 1011.7
20210924070025 52 45 0.0 0.0 0.00 0.00 0.00 77 1011.8
20210924064554 52 45 0.0 0.0 0.00 0.00 0.00 76 1011.7
20210924063106 52 45 0.0 0.0 0.00 0.00 0.00 76 1011.6
20210924061527 52 45 0.0 0.0 0.00 0.00 0.00 75 1011.7
20210924060026 52 45 0.0 0.0 0.00 0.00 0.00 74 1011.5